sensor_id;sensor_type;location;lat;lon;timestamp;P1;durP1;ratioP1;P2;durP2;ratioP2
69404;SDS011;57084;52.046;5.632;2022-10-16T00:00:00;5.9;;;2.2;;
69404;SDS011;57084;52.046;5.632;2022-10-16T00:01:04;5.9;;;2.2;;
69404;SDS011;57084;52.046;5.632;2022-10-16T00:02:00;5.9;;;2.2;;
69404;SDS011;57084;52.046;5.632;2022-10-16T00:03:00;9.0;;;2.4;;
69404;SDS011;57084;52.046;5.632;2022-10-16T00:04:01;9.0;;;2.4;;
69404;SDS011;57084;52.046;5.632;2022-10-16T00:05:00;9.0;;;2.4;;
69404;SDS011;57084;52.046;5.632;2022-10-16T00:06:01;9.0;;;2.4;;
69404;SDS011;57084;52.046;5.632;2022-10-16T00:07:00;9.0;;;2.4;;
69404;SDS011;57084;52.046;5.632;2022-10-16T00:08:00;6.8;;;2.4;;
69404;SDS011;57084;52.046;5.632;2022-10-16T00:09:00;6.8;;;2.4;;
69404;SDS011;57084;52.046;5.632;2022-10-16T00:10:00;6.8;;;2.4;;
69404;SDS011;57084;52.046;5.632;2022-10-16T00:11:02;6.8;;;2.4;;
69404;SDS011;57084;52.046;5.632;2022-10-16T00:12:00;6.8;;;2.4;;
69404;SDS011;57084;52.046;5.632;2022-10-16T00:13:00;6.6;;;2.3;;
69404;SDS011;57084;52.046;5.632;2022-10-16T00:14:02;6.6;;;2.3;;
69404;SDS011;57084;52.046;5.632;2022-10-16T00:15:00;6.6;;;2.3;;
69404;SDS011;57084;52.046;5.632;2022-10-16T00:16:00;6.6;;;2.3;;
69404;SDS011;57084;52.046;5.632;2022-10-16T00:17:00;6.6;;;2.3;;
69404;SDS011;57084;52.046;5.632;2022-10-16T00:18:00;5.9;;;2.1;;
69404;SDS011;57084;52.046;5.632;2022-10-16T00:19:00;5.9;;;2.1;;
69404;SDS011;57084;52.046;5.632;2022-10-16T00:20:00;5.9;;;2.1;;
69404;SDS011;57084;52.046;5.632;2022-10-16T00:21:03;5.9;;;2.1;;
69404;SDS011;57084;52.046;5.632;2022-10-16T00:22:00;5.9;;;2.1;;
69404;SDS011;57084;52.046;5.632;2022-10-16T00:23:00;5.1;;;2.0;;
69404;SDS011;57084;52.046;5.632;2022-10-16T00:24:03;5.1;;;2.0;;
69404;SDS011;57084;52.046;5.632;2022-10-16T00:25:00;5.1;;;2.0;;
69404;SDS011;57084;52.046;5.632;2022-10-16T00:26:04;5.1;;;2.0;;
69404;SDS011;57084;52.046;5.632;2022-10-16T00:27:00;5.1;;;2.0;;
69404;SDS011;57084;52.046;5.632;2022-10-16T00:28:00;5.8;;;1.9;;
69404;SDS011;57084;52.046;5.632;2022-10-16T00:29:00;5.8;;;1.9;;
69404;SDS011;57084;52.046;5.632;2022-10-16T00:30:00;5.8;;;1.9;;
69404;SDS011;57084;52.046;5.632;2022-10-16T00:31:03;5.8;;;1.9;;
69404;SDS011;57084;52.046;5.632;2022-10-16T00:32:00;5.8;;;1.9;;
69404;SDS011;57084;52.046;5.632;2022-10-16T00:33:00;5.0;;;1.8;;
69404;SDS011;57084;52.046;5.632;2022-10-16T00:34:00;5.0;;;1.8;;
69404;SDS011;57084;52.046;5.632;2022-10-16T00:35:00;5.0;;;1.8;;
69404;SDS011;57084;52.046;5.632;2022-10-16T00:36:00;5.0;;;1.8;;
69404;SDS011;57084;52.046;5.632;2022-10-16T00:37:00;5.0;;;1.8;;
69404;SDS011;57084;52.046;5.632;2022-10-16T00:38:00;9.5;;;2.0;;
69404;SDS011;57084;52.046;5.632;2022-10-16T00:39:00;9.5;;;2.0;;
69404;SDS011;57084;52.046;5.632;2022-10-16T00:40:00;9.5;;;2.0;;
69404;SDS011;57084;52.046;5.632;2022-10-16T00:41:00;9.5;;;2.0;;
69404;SDS011;57084;52.046;5.632;2022-10-16T00:42:00;9.5;;;2.0;;
69404;SDS011;57084;52.046;5.632;2022-10-16T00:43:00;7.3;;;2.5;;
69404;SDS011;57084;52.046;5.632;2022-10-16T00:44:01;7.3;;;2.5;;
69404;SDS011;57084;52.046;5.632;2022-10-16T00:45:00;7.3;;;2.5;;
69404;SDS011;57084;52.046;5.632;2022-10-16T00:46:00;7.3;;;2.5;;
69404;SDS011;57084;52.046;5.632;2022-10-16T00:47:00;7.3;;;2.5;;
69404;SDS011;57084;52.046;5.632;2022-10-16T00:48:00;9.0;;;2.3;;
69404;SDS011;57084;52.046;5.632;2022-10-16T00:49:03;9.0;;;2.3;;
69404;SDS011;57084;52.046;5.632;2022-10-16T00:50:06;9.0;;;2.3;;
69404;SDS011;57084;52.046;5.632;2022-10-16T00:51:00;9.0;;;2.3;;
69404;SDS011;57084;52.046;5.632;2022-10-16T00:52:00;9.0;;;2.3;;
69404;SDS011;57084;52.046;5.632;2022-10-16T00:53:01;7.1;;;2.0;;
69404;SDS011;57084;52.046;5.632;2022-10-16T00:54:01;7.1;;;2.0;;
69404;SDS011;57084;52.046;5.632;2022-10-16T00:55:02;7.1;;;2.0;;
69404;SDS011;57084;52.046;5.632;2022-10-16T00:56:00;7.1;;;2.0;;
69404;SDS011;57084;52.046;5.632;2022-10-16T00:57:04;7.1;;;2.0;;
69404;SDS011;57084;52.046;5.632;2022-10-16T00:58:00;7.1;;;2.3;;
69404;SDS011;57084;52.046;5.632;2022-10-16T00:59:01;7.1;;;2.3;;
69404;SDS011;57084;52.046;5.632;2022-10-16T01:00:00;7.1;;;2.3;;
69404;SDS011;57084;52.046;5.632;2022-10-16T01:01:00;7.1;;;2.3;;
69404;SDS011;57084;52.046;5.632;2022-10-16T01:02:02;7.1;;;2.3;;
69404;SDS011;57084;52.046;5.632;2022-10-16T01:03:02;5.6;;;2.2;;
69404;SDS011;57084;52.046;5.632;2022-10-16T01:04:00;5.6;;;2.2;;
69404;SDS011;57084;52.046;5.632;2022-10-16T01:05:01;5.6;;;2.2;;
69404;SDS011;57084;52.046;5.632;2022-10-16T01:06:09;5.6;;;2.2;;
69404;SDS011;57084;52.046;5.632;2022-10-16T01:07:05;5.6;;;2.2;;
69404;SDS011;57084;52.046;5.632;2022-10-16T01:08:07;7.5;;;2.3;;
69404;SDS011;57084;52.046;5.632;2022-10-16T01:09:09;7.5;;;2.3;;
69404;SDS011;57084;52.046;5.632;2022-10-16T01:10:10;7.5;;;2.3;;
69404;SDS011;57084;52.046;5.632;2022-10-16T01:11:07;7.5;;;2.3;;
69404;SDS011;57084;52.046;5.632;2022-10-16T01:12:06;7.5;;;2.3;;
69404;SDS011;57084;52.046;5.632;2022-10-16T01:13:03;7.5;;;2.3;;
69404;SDS011;57084;52.046;5.632;2022-10-16T01:14:05;8.4;;;2.2;;
69404;SDS011;57084;52.046;5.632;2022-10-16T01:15:06;8.4;;;2.2;;
69404;SDS011;57084;52.046;5.632;2022-10-16T01:16:05;8.4;;;2.2;;
69404;SDS011;57084;52.046;5.632;2022-10-16T01:17:04;8.4;;;2.2;;
69404;SDS011;57084;52.046;5.632;2022-10-16T01:18:03;8.4;;;2.2;;
69404;SDS011;57084;52.046;5.632;2022-10-16T01:19:05;7.3;;;2.4;;
69404;SDS011;57084;52.046;5.632;2022-10-16T01:20:05;7.3;;;2.4;;
69404;SDS011;57084;52.046;5.632;2022-10-16T01:21:03;7.3;;;2.4;;
69404;SDS011;57084;52.046;5.632;2022-10-16T01:22:01;7.3;;;2.4;;
69404;SDS011;57084;52.046;5.632;2022-10-16T01:23:10;6.1;;;2.2;;
69404;SDS011;57084;52.046;5.632;2022-10-16T01:24:06;6.1;;;2.2;;
69404;SDS011;57084;52.046;5.632;2022-10-16T01:25:06;6.1;;;2.2;;
69404;SDS011;57084;52.046;5.632;2022-10-16T01:26:14;6.1;;;2.2;;
69404;SDS011;57084;52.046;5.632;2022-10-16T01:27:03;6.1;;;2.2;;
69404;SDS011;57084;52.046;5.632;2022-10-16T01:28:02;6.1;;;2.2;;
69404;SDS011;57084;52.046;5.632;2022-10-16T01:29:03;6.1;;;2.2;;
69404;SDS011;57084;52.046;5.632;2022-10-16T01:30:04;6.1;;;2.2;;
69404;SDS011;57084;52.046;5.632;2022-10-16T01:31:01;6.1;;;2.2;;
69404;SDS011;57084;52.046;5.632;2022-10-16T01:32:06;6.1;;;2.2;;
69404;SDS011;57084;52.046;5.632;2022-10-16T01:33:02;6.1;;;2.2;;
69404;SDS011;57084;52.046;5.632;2022-10-16T01:34:04;6.4;;;2.1;;
69404;SDS011;57084;52.046;5.632;2022-10-16T01:35:03;6.4;;;2.1;;
69404;SDS011;57084;52.046;5.632;2022-10-16T01:36:04;6.4;;;2.1;;
69404;SDS011;57084;52.046;5.632;2022-10-16T01:37:04;6.4;;;2.1;;
69404;SDS011;57084;52.046;5.632;2022-10-16T01:38:03;6.4;;;2.1;;
69404;SDS011;57084;52.046;5.632;2022-10-16T01:39:01;4.3;;;2.0;;
69404;SDS011;57084;52.046;5.632;2022-10-16T01:40:03;4.3;;;2.0;;
69404;SDS011;57084;52.046;5.632;2022-10-16T01:41:03;4.3;;;2.0;;
69404;SDS011;57084;52.046;5.632;2022-10-16T01:42:04;4.3;;;2.0;;
69404;SDS011;57084;52.046;5.632;2022-10-16T01:43:04;4.3;;;2.0;;
69404;SDS011;57084;52.046;5.632;2022-10-16T01:44:04;6.4;;;2.3;;
69404;SDS011;57084;52.046;5.632;2022-10-16T01:45:01;6.4;;;2.3;;
69404;SDS011;57084;52.046;5.632;2022-10-16T01:46:01;6.4;;;2.3;;
69404;SDS011;57084;52.046;5.632;2022-10-16T01:47:00;6.4;;;2.3;;
69404;SDS011;57084;52.046;5.632;2022-10-16T01:48:01;6.4;;;2.3;;
69404;SDS011;57084;52.046;5.632;2022-10-16T01:49:02;5.5;;;2.5;;
69404;SDS011;57084;52.046;5.632;2022-10-16T01:50:02;5.5;;;2.5;;
69404;SDS011;57084;52.046;5.632;2022-10-16T01:51:03;5.5;;;2.5;;
69404;SDS011;57084;52.046;5.632;2022-10-16T01:52:03;5.5;;;2.5;;
69404;SDS011;57084;52.046;5.632;2022-10-16T01:53:02;5.5;;;2.5;;
69404;SDS011;57084;52.046;5.632;2022-10-16T01:54:01;6.5;;;2.1;;
69404;SDS011;57084;52.046;5.632;2022-10-16T01:55:02;6.5;;;2.1;;
69404;SDS011;57084;52.046;5.632;2022-10-16T01:56:01;6.5;;;2.1;;
69404;SDS011;57084;52.046;5.632;2022-10-16T01:57:01;6.5;;;2.1;;
69404;SDS011;57084;52.046;5.632;2022-10-16T01:58:02;6.5;;;2.1;;
69404;SDS011;57084;52.046;5.632;2022-10-16T01:59:02;5.2;;;1.9;;
69404;SDS011;57084;52.046;5.632;2022-10-16T02:00:03;5.2;;;1.9;;
69404;SDS011;57084;52.046;5.632;2022-10-16T02:01:01;5.2;;;1.9;;
69404;SDS011;57084;52.046;5.632;2022-10-16T02:02:05;5.2;;;1.9;;
69404;SDS011;57084;52.046;5.632;2022-10-16T02:03:01;5.2;;;1.9;;
69404;SDS011;57084;52.046;5.632;2022-10-16T02:04:11;7.1;;;2.0;;
69404;SDS011;57084;52.046;5.632;2022-10-16T02:05:05;7.1;;;2.0;;
69404;SDS011;57084;52.046;5.632;2022-10-16T02:06:00;7.1;;;2.0;;
69404;SDS011;57084;52.046;5.632;2022-10-16T02:07:00;7.1;;;2.0;;
69404;SDS011;57084;52.046;5.632;2022-10-16T02:08:00;7.1;;;2.0;;
69404;SDS011;57084;52.046;5.632;2022-10-16T02:09:00;6.7;;;1.8;;
69404;SDS011;57084;52.046;5.632;2022-10-16T02:10:00;6.7;;;1.8;;
69404;SDS011;57084;52.046;5.632;2022-10-16T02:11:00;6.7;;;1.8;;
69404;SDS011;57084;52.046;5.632;2022-10-16T02:12:05;6.7;;;1.8;;
69404;SDS011;57084;52.046;5.632;2022-10-16T02:13:03;6.7;;;1.8;;
69404;SDS011;57084;52.046;5.632;2022-10-16T02:14:02;4.8;;;2.0;;
69404;SDS011;57084;52.046;5.632;2022-10-16T02:15:00;4.8;;;2.0;;
69404;SDS011;57084;52.046;5.632;2022-10-16T02:16:00;4.8;;;2.0;;
69404;SDS011;57084;52.046;5.632;2022-10-16T02:17:00;4.8;;;2.0;;
69404;SDS011;57084;52.046;5.632;2022-10-16T02:18:01;4.8;;;2.0;;
69404;SDS011;57084;52.046;5.632;2022-10-16T02:19:00;6.9;;;1.9;;
69404;SDS011;57084;52.046;5.632;2022-10-16T02:20:00;6.9;;;1.9;;
69404;SDS011;57084;52.046;5.632;2022-10-16T02:21:07;6.9;;;1.9;;
69404;SDS011;57084;52.046;5.632;2022-10-16T02:22:03;6.9;;;1.9;;
69404;SDS011;57084;52.046;5.632;2022-10-16T02:23:01;6.9;;;1.9;;
69404;SDS011;57084;52.046;5.632;2022-10-16T02:24:03;7.1;;;2.0;;
69404;SDS011;57084;52.046;5.632;2022-10-16T02:25:04;7.1;;;2.0;;
69404;SDS011;57084;52.046;5.632;2022-10-16T02:26:03;7.1;;;2.0;;
69404;SDS011;57084;52.046;5.632;2022-10-16T02:27:05;7.1;;;2.0;;
69404;SDS011;57084;52.046;5.632;2022-10-16T02:28:03;7.1;;;2.0;;
69404;SDS011;57084;52.046;5.632;2022-10-16T02:29:03;6.5;;;2.0;;
69404;SDS011;57084;52.046;5.632;2022-10-16T02:30:05;6.5;;;2.0;;
69404;SDS011;57084;52.046;5.632;2022-10-16T02:31:03;6.5;;;2.0;;
69404;SDS011;57084;52.046;5.632;2022-10-16T02:32:02;6.5;;;2.0;;
69404;SDS011;57084;52.046;5.632;2022-10-16T02:33:02;6.5;;;2.0;;
69404;SDS011;57084;52.046;5.632;2022-10-16T02:34:02;6.6;;;1.9;;
69404;SDS011;57084;52.046;5.632;2022-10-16T02:35:01;6.6;;;1.9;;
69404;SDS011;57084;52.046;5.632;2022-10-16T02:36:00;6.6;;;1.9;;
69404;SDS011;57084;52.046;5.632;2022-10-16T02:37:01;6.6;;;1.9;;
69404;SDS011;57084;52.046;5.632;2022-10-16T02:38:00;6.6;;;1.9;;
69404;SDS011;57084;52.046;5.632;2022-10-16T02:39:00;6.1;;;2.2;;
69404;SDS011;57084;52.046;5.632;2022-10-16T02:40:00;6.1;;;2.2;;
69404;SDS011;57084;52.046;5.632;2022-10-16T02:41:00;6.1;;;2.2;;
69404;SDS011;57084;52.046;5.632;2022-10-16T02:42:00;6.1;;;2.2;;
69404;SDS011;57084;52.046;5.632;2022-10-16T02:43:00;6.1;;;2.2;;
69404;SDS011;57084;52.046;5.632;2022-10-16T02:44:00;4.7;;;1.7;;
69404;SDS011;57084;52.046;5.632;2022-10-16T02:45:00;4.7;;;1.7;;
69404;SDS011;57084;52.046;5.632;2022-10-16T02:46:00;4.7;;;1.7;;
69404;SDS011;57084;52.046;5.632;2022-10-16T02:47:00;4.7;;;1.7;;
69404;SDS011;57084;52.046;5.632;2022-10-16T02:48:00;4.7;;;1.7;;
69404;SDS011;57084;52.046;5.632;2022-10-16T02:49:00;5.2;;;2.0;;
69404;SDS011;57084;52.046;5.632;2022-10-16T02:50:00;5.2;;;2.0;;
69404;SDS011;57084;52.046;5.632;2022-10-16T02:51:00;5.2;;;2.0;;
69404;SDS011;57084;52.046;5.632;2022-10-16T02:52:00;5.2;;;2.0;;
69404;SDS011;57084;52.046;5.632;2022-10-16T02:53:00;5.2;;;2.0;;
69404;SDS011;57084;52.046;5.632;2022-10-16T02:54:01;5.7;;;2.0;;
69404;SDS011;57084;52.046;5.632;2022-10-16T02:55:00;5.7;;;2.0;;
69404;SDS011;57084;52.046;5.632;2022-10-16T02:56:00;5.7;;;2.0;;
69404;SDS011;57084;52.046;5.632;2022-10-16T02:57:00;5.7;;;2.0;;
69404;SDS011;57084;52.046;5.632;2022-10-16T02:58:00;5.7;;;2.0;;
69404;SDS011;57084;52.046;5.632;2022-10-16T02:59:00;5.9;;;2.1;;
69404;SDS011;57084;52.046;5.632;2022-10-16T03:00:00;5.9;;;2.1;;
69404;SDS011;57084;52.046;5.632;2022-10-16T03:01:00;5.9;;;2.1;;
69404;SDS011;57084;52.046;5.632;2022-10-16T03:02:00;5.9;;;2.1;;
69404;SDS011;57084;52.046;5.632;2022-10-16T03:03:00;5.9;;;2.1;;
69404;SDS011;57084;52.046;5.632;2022-10-16T03:04:00;5.5;;;1.8;;
69404;SDS011;57084;52.046;5.632;2022-10-16T03:05:00;5.5;;;1.8;;
69404;SDS011;57084;52.046;5.632;2022-10-16T03:06:00;5.5;;;1.8;;
69404;SDS011;57084;52.046;5.632;2022-10-16T03:07:00;5.5;;;1.8;;
69404;SDS011;57084;52.046;5.632;2022-10-16T03:08:00;5.5;;;1.8;;
69404;SDS011;57084;52.046;5.632;2022-10-16T03:09:00;5.8;;;1.9;;
69404;SDS011;57084;52.046;5.632;2022-10-16T03:10:00;5.8;;;1.9;;
69404;SDS011;57084;52.046;5.632;2022-10-16T03:11:00;5.8;;;1.9;;
69404;SDS011;57084;52.046;5.632;2022-10-16T03:12:00;5.8;;;1.9;;
69404;SDS011;57084;52.046;5.632;2022-10-16T03:13:00;5.8;;;1.9;;
69404;SDS011;57084;52.046;5.632;2022-10-16T03:14:00;5.8;;;1.9;;
69404;SDS011;57084;52.046;5.632;2022-10-16T03:15:00;7.5;;;1.9;;
69404;SDS011;57084;52.046;5.632;2022-10-16T03:16:00;7.5;;;1.9;;
69404;SDS011;57084;52.046;5.632;2022-10-16T03:17:00;7.5;;;1.9;;
69404;SDS011;57084;52.046;5.632;2022-10-16T03:18:00;7.5;;;1.9;;
69404;SDS011;57084;52.046;5.632;2022-10-16T03:19:00;7.5;;;1.9;;
69404;SDS011;57084;52.046;5.632;2022-10-16T03:20:00;4.4;;;1.8;;
69404;SDS011;57084;52.046;5.632;2022-10-16T03:21:00;4.4;;;1.8;;
69404;SDS011;57084;52.046;5.632;2022-10-16T03:22:00;4.4;;;1.8;;
69404;SDS011;57084;52.046;5.632;2022-10-16T03:23:00;4.4;;;1.8;;
69404;SDS011;57084;52.046;5.632;2022-10-16T03:24:00;4.4;;;1.8;;
69404;SDS011;57084;52.046;5.632;2022-10-16T03:25:00;6.5;;;2.0;;
69404;SDS011;57084;52.046;5.632;2022-10-16T03:26:00;6.5;;;2.0;;
69404;SDS011;57084;52.046;5.632;2022-10-16T03:27:00;6.5;;;2.0;;
69404;SDS011;57084;52.046;5.632;2022-10-16T03:28:00;6.5;;;2.0;;
69404;SDS011;57084;52.046;5.632;2022-10-16T03:29:00;6.5;;;2.0;;
69404;SDS011;57084;52.046;5.632;2022-10-16T03:30:00;5.3;;;1.8;;
69404;SDS011;57084;52.046;5.632;2022-10-16T03:31:00;5.3;;;1.8;;
69404;SDS011;57084;52.046;5.632;2022-10-16T03:32:01;5.3;;;1.8;;
69404;SDS011;57084;52.046;5.632;2022-10-16T03:33:00;5.3;;;1.8;;
69404;SDS011;57084;52.046;5.632;2022-10-16T03:34:00;5.3;;;1.8;;
69404;SDS011;57084;52.046;5.632;2022-10-16T03:35:00;4.6;;;1.8;;
69404;SDS011;57084;52.046;5.632;2022-10-16T03:36:00;4.6;;;1.8;;
69404;SDS011;57084;52.046;5.632;2022-10-16T03:37:00;4.6;;;1.8;;
69404;SDS011;57084;52.046;5.632;2022-10-16T03:38:00;4.6;;;1.8;;
69404;SDS011;57084;52.046;5.632;2022-10-16T03:39:00;4.6;;;1.8;;
69404;SDS011;57084;52.046;5.632;2022-10-16T03:40:00;3.8;;;1.6;;
69404;SDS011;57084;52.046;5.632;2022-10-16T03:41:00;3.8;;;1.6;;
69404;SDS011;57084;52.046;5.632;2022-10-16T03:42:00;3.8;;;1.6;;
69404;SDS011;57084;52.046;5.632;2022-10-16T03:43:00;3.8;;;1.6;;
69404;SDS011;57084;52.046;5.632;2022-10-16T03:44:00;3.8;;;1.6;;
69404;SDS011;57084;52.046;5.632;2022-10-16T03:45:00;4.6;;;1.9;;
69404;SDS011;57084;52.046;5.632;2022-10-16T03:46:00;4.6;;;1.9;;
69404;SDS011;57084;52.046;5.632;2022-10-16T03:47:00;4.6;;;1.9;;
69404;SDS011;57084;52.046;5.632;2022-10-16T03:48:00;4.6;;;1.9;;
69404;SDS011;57084;52.046;5.632;2022-10-16T03:49:00;4.6;;;1.9;;
69404;SDS011;57084;52.046;5.632;2022-10-16T03:50:00;7.6;;;1.7;;
69404;SDS011;57084;52.046;5.632;2022-10-16T03:51:00;7.6;;;1.7;;
69404;SDS011;57084;52.046;5.632;2022-10-16T03:52:00;7.6;;;1.7;;
69404;SDS011;57084;52.046;5.632;2022-10-16T03:53:00;7.6;;;1.7;;
69404;SDS011;57084;52.046;5.632;2022-10-16T03:54:00;7.6;;;1.7;;
69404;SDS011;57084;52.046;5.632;2022-10-16T03:55:00;5.1;;;1.8;;
69404;SDS011;57084;52.046;5.632;2022-10-16T03:56:00;5.1;;;1.8;;
69404;SDS011;57084;52.046;5.632;2022-10-16T03:57:00;5.1;;;1.8;;
69404;SDS011;57084;52.046;5.632;2022-10-16T03:58:00;5.1;;;1.8;;
69404;SDS011;57084;52.046;5.632;2022-10-16T03:59:00;5.1;;;1.8;;
69404;SDS011;57084;52.046;5.632;2022-10-16T04:00:00;5.8;;;1.7;;
69404;SDS011;57084;52.046;5.632;2022-10-16T04:01:00;5.8;;;1.7;;
69404;SDS011;57084;52.046;5.632;2022-10-16T04:02:00;5.8;;;1.7;;
69404;SDS011;57084;52.046;5.632;2022-10-16T04:03:00;5.8;;;1.7;;
69404;SDS011;57084;52.046;5.632;2022-10-16T04:04:00;5.8;;;1.7;;
69404;SDS011;57084;52.046;5.632;2022-10-16T04:05:00;7.8;;;1.7;;
69404;SDS011;57084;52.046;5.632;2022-10-16T04:06:00;7.8;;;1.7;;
69404;SDS011;57084;52.046;5.632;2022-10-16T04:07:00;7.8;;;1.7;;
69404;SDS011;57084;52.046;5.632;2022-10-16T04:08:00;7.8;;;1.7;;
69404;SDS011;57084;52.046;5.632;2022-10-16T04:09:00;7.8;;;1.7;;
69404;SDS011;57084;52.046;5.632;2022-10-16T04:10:00;5.1;;;1.6;;
69404;SDS011;57084;52.046;5.632;2022-10-16T04:11:00;5.1;;;1.6;;
69404;SDS011;57084;52.046;5.632;2022-10-16T04:12:00;5.1;;;1.6;;
69404;SDS011;57084;52.046;5.632;2022-10-16T04:13:00;5.1;;;1.6;;
69404;SDS011;57084;52.046;5.632;2022-10-16T04:14:00;5.1;;;1.6;;
69404;SDS011;57084;52.046;5.632;2022-10-16T04:15:00;4.8;;;1.6;;
69404;SDS011;57084;52.046;5.632;2022-10-16T04:16:00;4.8;;;1.6;;
69404;SDS011;57084;52.046;5.632;2022-10-16T04:17:00;4.8;;;1.6;;
69404;SDS011;57084;52.046;5.632;2022-10-16T04:18:00;4.8;;;1.6;;
69404;SDS011;57084;52.046;5.632;2022-10-16T04:19:00;4.8;;;1.6;;
69404;SDS011;57084;52.046;5.632;2022-10-16T04:20:00;3.9;;;1.5;;
69404;SDS011;57084;52.046;5.632;2022-10-16T04:21:02;3.9;;;1.5;;
69404;SDS011;57084;52.046;5.632;2022-10-16T04:22:00;3.9;;;1.5;;
69404;SDS011;57084;52.046;5.632;2022-10-16T04:23:00;3.9;;;1.5;;
69404;SDS011;57084;52.046;5.632;2022-10-16T04:24:00;3.9;;;1.5;;
69404;SDS011;57084;52.046;5.632;2022-10-16T04:25:00;4.7;;;1.5;;
69404;SDS011;57084;52.046;5.632;2022-10-16T04:26:00;4.7;;;1.5;;
69404;SDS011;57084;52.046;5.632;2022-10-16T04:27:00;4.7;;;1.5;;
69404;SDS011;57084;52.046;5.632;2022-10-16T04:28:00;4.7;;;1.5;;
69404;SDS011;57084;52.046;5.632;2022-10-16T04:29:00;4.7;;;1.5;;
69404;SDS011;57084;52.046;5.632;2022-10-16T04:30:00;4.6;;;1.5;;
69404;SDS011;57084;52.046;5.632;2022-10-16T04:31:03;4.6;;;1.5;;
69404;SDS011;57084;52.046;5.632;2022-10-16T04:32:00;4.6;;;1.5;;
69404;SDS011;57084;52.046;5.632;2022-10-16T04:33:00;4.6;;;1.5;;
69404;SDS011;57084;52.046;5.632;2022-10-16T04:34:00;4.6;;;1.5;;
69404;SDS011;57084;52.046;5.632;2022-10-16T04:35:00;4.7;;;1.7;;
69404;SDS011;57084;52.046;5.632;2022-10-16T04:36:01;4.7;;;1.7;;
69404;SDS011;57084;52.046;5.632;2022-10-16T04:37:00;4.7;;;1.7;;
69404;SDS011;57084;52.046;5.632;2022-10-16T04:38:00;4.7;;;1.7;;
69404;SDS011;57084;52.046;5.632;2022-10-16T04:39:00;4.7;;;1.7;;
69404;SDS011;57084;52.046;5.632;2022-10-16T04:40:00;7.1;;;1.8;;
69404;SDS011;57084;52.046;5.632;2022-10-16T04:41:00;7.1;;;1.8;;
69404;SDS011;57084;52.046;5.632;2022-10-16T04:42:00;7.1;;;1.8;;
69404;SDS011;57084;52.046;5.632;2022-10-16T04:43:00;7.1;;;1.8;;
69404;SDS011;57084;52.046;5.632;2022-10-16T04:44:00;7.1;;;1.8;;
69404;SDS011;57084;52.046;5.632;2022-10-16T04:45:00;4.0;;;1.7;;
69404;SDS011;57084;52.046;5.632;2022-10-16T04:46:00;4.0;;;1.7;;
69404;SDS011;57084;52.046;5.632;2022-10-16T04:47:00;4.0;;;1.7;;
69404;SDS011;57084;52.046;5.632;2022-10-16T04:48:00;4.0;;;1.7;;
69404;SDS011;57084;52.046;5.632;2022-10-16T04:49:00;4.0;;;1.7;;
69404;SDS011;57084;52.046;5.632;2022-10-16T04:50:00;8.3;;;1.6;;
69404;SDS011;57084;52.046;5.632;2022-10-16T04:51:00;8.3;;;1.6;;
69404;SDS011;57084;52.046;5.632;2022-10-16T04:52:00;8.3;;;1.6;;
69404;SDS011;57084;52.046;5.632;2022-10-16T04:53:00;8.3;;;1.6;;
69404;SDS011;57084;52.046;5.632;2022-10-16T04:54:00;8.3;;;1.6;;
69404;SDS011;57084;52.046;5.632;2022-10-16T04:55:00;6.4;;;1.5;;
69404;SDS011;57084;52.046;5.632;2022-10-16T04:56:00;6.4;;;1.5;;
69404;SDS011;57084;52.046;5.632;2022-10-16T04:57:00;6.4;;;1.5;;
69404;SDS011;57084;52.046;5.632;2022-10-16T04:58:00;6.4;;;1.5;;
69404;SDS011;57084;52.046;5.632;2022-10-16T04:59:00;6.4;;;1.5;;
69404;SDS011;57084;52.046;5.632;2022-10-16T05:00:00;7.2;;;1.9;;
69404;SDS011;57084;52.046;5.632;2022-10-16T05:01:00;7.2;;;1.9;;
69404;SDS011;57084;52.046;5.632;2022-10-16T05:02:00;7.2;;;1.9;;
69404;SDS011;57084;52.046;5.632;2022-10-16T05:03:00;7.2;;;1.9;;
69404;SDS011;57084;52.046;5.632;2022-10-16T05:04:00;7.2;;;1.9;;
69404;SDS011;57084;52.046;5.632;2022-10-16T05:05:00;4.1;;;1.5;;
69404;SDS011;57084;52.046;5.632;2022-10-16T05:06:00;4.1;;;1.5;;
69404;SDS011;57084;52.046;5.632;2022-10-16T05:07:00;4.1;;;1.5;;
69404;SDS011;57084;52.046;5.632;2022-10-16T05:08:00;4.1;;;1.5;;
69404;SDS011;57084;52.046;5.632;2022-10-16T05:09:00;4.1;;;1.5;;
69404;SDS011;57084;52.046;5.632;2022-10-16T05:10:00;5.3;;;1.8;;
69404;SDS011;57084;52.046;5.632;2022-10-16T05:11:00;5.3;;;1.8;;
69404;SDS011;57084;52.046;5.632;2022-10-16T05:12:00;5.3;;;1.8;;
69404;SDS011;57084;52.046;5.632;2022-10-16T05:13:00;5.3;;;1.8;;
69404;SDS011;57084;52.046;5.632;2022-10-16T05:14:00;5.3;;;1.8;;
69404;SDS011;57084;52.046;5.632;2022-10-16T05:15:00;4.9;;;1.6;;
69404;SDS011;57084;52.046;5.632;2022-10-16T05:16:00;4.9;;;1.6;;
69404;SDS011;57084;52.046;5.632;2022-10-16T05:17:00;4.9;;;1.6;;
69404;SDS011;57084;52.046;5.632;2022-10-16T05:18:00;4.9;;;1.6;;
69404;SDS011;57084;52.046;5.632;2022-10-16T05:19:00;4.9;;;1.6;;
69404;SDS011;57084;52.046;5.632;2022-10-16T05:20:00;4.9;;;1.6;;
69404;SDS011;57084;52.046;5.632;2022-10-16T05:21:00;4.8;;;1.7;;
69404;SDS011;57084;52.046;5.632;2022-10-16T05:22:00;4.8;;;1.7;;
69404;SDS011;57084;52.046;5.632;2022-10-16T05:23:00;4.8;;;1.7;;
69404;SDS011;57084;52.046;5.632;2022-10-16T05:24:00;4.8;;;1.7;;
69404;SDS011;57084;52.046;5.632;2022-10-16T05:25:00;4.8;;;1.7;;
69404;SDS011;57084;52.046;5.632;2022-10-16T05:26:00;4.6;;;1.5;;
69404;SDS011;57084;52.046;5.632;2022-10-16T05:27:00;4.6;;;1.5;;
69404;SDS011;57084;52.046;5.632;2022-10-16T05:28:00;4.6;;;1.5;;
69404;SDS011;57084;52.046;5.632;2022-10-16T05:29:00;4.6;;;1.5;;
69404;SDS011;57084;52.046;5.632;2022-10-16T05:30:00;4.6;;;1.5;;
69404;SDS011;57084;52.046;5.632;2022-10-16T05:31:04;4.4;;;1.7;;
69404;SDS011;57084;52.046;5.632;2022-10-16T05:32:00;4.4;;;1.7;;
69404;SDS011;57084;52.046;5.632;2022-10-16T05:33:00;4.4;;;1.7;;
69404;SDS011;57084;52.046;5.632;2022-10-16T05:34:00;4.4;;;1.7;;
69404;SDS011;57084;52.046;5.632;2022-10-16T05:35:00;4.4;;;1.7;;
69404;SDS011;57084;52.046;5.632;2022-10-16T05:36:01;4.6;;;1.7;;
69404;SDS011;57084;52.046;5.632;2022-10-16T05:37:00;4.6;;;1.7;;
69404;SDS011;57084;52.046;5.632;2022-10-16T05:38:00;4.6;;;1.7;;
69404;SDS011;57084;52.046;5.632;2022-10-16T05:39:00;4.6;;;1.7;;
69404;SDS011;57084;52.046;5.632;2022-10-16T05:40:00;4.6;;;1.7;;
69404;SDS011;57084;52.046;5.632;2022-10-16T05:41:00;5.7;;;1.5;;
69404;SDS011;57084;52.046;5.632;2022-10-16T05:42:00;5.7;;;1.5;;
69404;SDS011;57084;52.046;5.632;2022-10-16T05:43:00;5.7;;;1.5;;
69404;SDS011;57084;52.046;5.632;2022-10-16T05:44:00;5.7;;;1.5;;
69404;SDS011;57084;52.046;5.632;2022-10-16T05:45:00;5.7;;;1.5;;
69404;SDS011;57084;52.046;5.632;2022-10-16T05:46:03;3.9;;;1.7;;
69404;SDS011;57084;52.046;5.632;2022-10-16T05:47:00;3.9;;;1.7;;
69404;SDS011;57084;52.046;5.632;2022-10-16T05:48:00;3.9;;;1.7;;
69404;SDS011;57084;52.046;5.632;2022-10-16T05:49:00;3.9;;;1.7;;
69404;SDS011;57084;52.046;5.632;2022-10-16T05:50:00;3.9;;;1.7;;
69404;SDS011;57084;52.046;5.632;2022-10-16T05:51:01;3.6;;;1.5;;
69404;SDS011;57084;52.046;5.632;2022-10-16T05:52:00;3.6;;;1.5;;
69404;SDS011;57084;52.046;5.632;2022-10-16T05:53:00;3.6;;;1.5;;
69404;SDS011;57084;52.046;5.632;2022-10-16T05:54:00;3.6;;;1.5;;
69404;SDS011;57084;52.046;5.632;2022-10-16T05:55:00;3.6;;;1.5;;
69404;SDS011;57084;52.046;5.632;2022-10-16T05:56:00;7.9;;;1.7;;
69404;SDS011;57084;52.046;5.632;2022-10-16T05:57:00;7.9;;;1.7;;
69404;SDS011;57084;52.046;5.632;2022-10-16T05:58:00;7.9;;;1.7;;
69404;SDS011;57084;52.046;5.632;2022-10-16T05:59:00;7.9;;;1.7;;
69404;SDS011;57084;52.046;5.632;2022-10-16T06:00:00;7.9;;;1.7;;
69404;SDS011;57084;52.046;5.632;2022-10-16T06:01:01;7.1;;;1.9;;
69404;SDS011;57084;52.046;5.632;2022-10-16T06:02:00;7.1;;;1.9;;
69404;SDS011;57084;52.046;5.632;2022-10-16T06:03:00;7.1;;;1.9;;
69404;SDS011;57084;52.046;5.632;2022-10-16T06:04:00;7.1;;;1.9;;
69404;SDS011;57084;52.046;5.632;2022-10-16T06:05:00;7.1;;;1.9;;
69404;SDS011;57084;52.046;5.632;2022-10-16T06:06:06;4.2;;;1.6;;
69404;SDS011;57084;52.046;5.632;2022-10-16T06:07:00;4.2;;;1.6;;
69404;SDS011;57084;52.046;5.632;2022-10-16T06:08:00;4.2;;;1.6;;
69404;SDS011;57084;52.046;5.632;2022-10-16T06:09:00;4.2;;;1.6;;
69404;SDS011;57084;52.046;5.632;2022-10-16T06:10:00;4.2;;;1.6;;
69404;SDS011;57084;52.046;5.632;2022-10-16T06:11:00;5.3;;;1.6;;
69404;SDS011;57084;52.046;5.632;2022-10-16T06:12:00;5.3;;;1.6;;